createdAt,value
2022-09-04T00:03:48.950Z,0.24
2022-09-04T00:18:48.805Z,0.4
2022-09-04T00:33:48.439Z,0.38
2022-09-04T00:48:49.225Z,0.54
2022-09-04T01:03:49.088Z,0.63
2022-09-04T01:18:48.921Z,0.42
2022-09-04T01:33:48.775Z,0.5
2022-09-04T01:48:48.554Z,0.44
2022-09-04T02:03:48.442Z,0.68
2022-09-04T02:18:49.068Z,0.67
2022-09-04T02:33:48.823Z,0.71
2022-09-04T02:48:48.747Z,0.57
2022-09-04T03:03:48.553Z,0.62
2022-09-04T03:18:48.521Z,0.86
2022-09-04T03:33:48.450Z,0.72
2022-09-04T03:48:48.472Z,0.32
2022-09-04T04:03:48.530Z,0.08
2022-09-04T04:18:48.641Z,0.01
2022-09-04T04:33:48.692Z,0.16
2022-09-04T04:48:48.939Z,0.32
2022-09-04T05:03:49.036Z,3.39
2022-09-04T05:18:49.180Z,1.61
2022-09-04T05:33:48.561Z,15.87
2022-09-04T05:48:49.116Z,9.84
2022-09-04T06:03:59.111Z,3.77
2022-09-04T06:18:49.186Z,3.43
2022-09-04T06:33:49.339Z,12.18
2022-09-04T06:48:48.620Z,6.42
2022-09-04T07:03:49.200Z,3.37
2022-09-04T07:18:49.081Z,4.02
2022-09-04T07:33:49.341Z,1.64
2022-09-04T07:48:49.124Z,2.16
2022-09-04T08:03:54.226Z,2.27
2022-09-04T08:18:48.739Z,2.05
2022-09-04T08:33:48.564Z,1.99
2022-09-04T08:48:49.090Z,1.91
2022-09-04T09:03:48.746Z,2.41
2022-09-04T09:18:49.190Z,2.64
2022-09-04T09:33:48.766Z,2.36
2022-09-04T09:48:48.743Z,2.33
2022-09-04T10:03:48.946Z,2.3
2022-09-04T10:18:48.631Z,2.15
2022-09-04T10:33:49.201Z,2.63
2022-09-04T10:48:49.018Z,2.27
2022-09-04T11:03:48.803Z,1.88
2022-09-04T11:18:48.664Z,2.66
2022-09-04T11:33:49.205Z,2.2
2022-09-04T11:48:48.831Z,2.04
2022-09-04T12:03:48.958Z,1.77
2022-09-04T12:18:49.187Z,2.2
2022-09-04T12:33:49.051Z,2.07
2022-09-04T12:48:48.664Z,1.94
2022-09-04T13:03:49.377Z,2.14
2022-09-04T13:18:49.031Z,2.41
2022-09-04T13:33:49.456Z,2.59
2022-09-04T13:48:48.958Z,2.63
2022-09-04T14:03:49.101Z,2.72
2022-09-04T14:18:48.956Z,2.48
2022-09-04T14:33:49.053Z,2.43
2022-09-04T14:48:49.019Z,2.34
2022-09-04T15:03:49.108Z,2.31
2022-09-04T15:18:49.114Z,2.45
2022-09-04T15:33:49.295Z,2.41
2022-09-04T15:48:48.775Z,2.46
2022-09-04T16:03:48.841Z,2.73
2022-09-04T16:18:50.326Z,2.62
2022-09-04T16:33:49.131Z,2.07
2022-09-04T16:48:49.219Z,2.69
2022-09-04T17:03:48.920Z,2.65
2022-09-04T17:18:49.329Z,2.49
2022-09-04T17:36:21.961Z,3.6
2022-09-04T17:48:48.683Z,3
2022-09-04T18:03:57.513Z,6.34
2022-09-04T18:18:48.961Z,7.64
2022-09-04T18:37:14.114Z,5.67
2022-09-04T18:50:42.555Z,3.2
2022-09-04T19:03:49.020Z,3.17
2022-09-04T19:18:49.348Z,4.61
2022-09-04T19:33:48.828Z,4.75
2022-09-04T19:48:51.090Z,5.25
2022-09-04T20:03:49.295Z,4.01
2022-09-04T20:18:48.874Z,4.73
2022-09-04T20:33:49.216Z,5.32
2022-09-04T20:52:47.833Z,9.31
2022-09-04T21:03:52.252Z,15.39
2022-09-04T21:19:11.428Z,15.02
2022-09-04T21:33:49.134Z,6.15
2022-09-04T21:48:48.941Z,6.82
2022-09-04T22:03:49.026Z,5.82
2022-09-04T22:18:48.609Z,4.19
2022-09-04T22:34:14.666Z,3.72
2022-09-04T22:49:08.047Z,3.54
2022-09-04T23:03:49.395Z,3.67
2022-09-04T23:19:31.310Z,3.61
2022-09-04T23:33:49.450Z,3.7
2022-09-04T23:48:49.508Z,3.97
